Terminal Aerodrome Forecast
Issued by NWS

Current Version | Previous Version | Text Only | Print | Product List | Glossary On
Versions: 1 2 3 4 5 6 7 8 9 10 11 12 13 14 15 16
000 FTUS41 KBTV 311130 TAFMPV TAF KMPV 311130Z 3112/0112 VRB02KT 5SM BR SCT050 TEMPO 3112/3113 1SM BR BKN001 FM311300 26008G14KT P6SM SCT025 BKN040 FM311700 29010G18KT P6SM SCT040 FM010000 30005KT P6SM SCT040 FM010600 VRB02KT 1SM BR BKN002=

USA.gov is the U.S. government's official web portal to all federal, state and local government web resources and services.